createdAt,value
2022-08-01T00:04:11.787Z,7.15
2022-08-01T00:09:23.647Z,9.40
2022-08-01T00:14:32.108Z,8.88
2022-08-01T00:19:35.758Z,9.90
2022-08-01T00:24:40.444Z,9.32
2022-08-01T00:30:09.801Z,8.13
2022-08-01T00:35:07.638Z,7.97
2022-08-01T00:40:12.294Z,7.45
2022-08-01T00:45:15.291Z,8.07
2022-08-01T00:50:18.352Z,8.10
2022-08-01T00:55:23.771Z,6.93
2022-08-01T01:00:27.497Z,6.75
2022-08-01T01:05:37.732Z,6.35
2022-08-01T01:10:48.039Z,6.45
2022-08-01T01:15:56.800Z,6.40
2022-08-01T01:21:07.374Z,6.45
2022-08-01T01:26:24.671Z,5.65
2022-08-01T01:31:32.393Z,5.40
2022-08-01T01:36:36.988Z,5.65
2022-08-01T01:41:41.544Z,5.80
2022-08-01T01:46:47.483Z,4.68
2022-08-01T01:52:02.800Z,6.25
2022-08-01T01:57:08.284Z,6.90
2022-08-01T02:02:14.279Z,5.88
2022-08-01T02:07:23.973Z,6.30
2022-08-01T02:12:27.720Z,6.78
2022-08-01T02:17:32.930Z,5.68
2022-08-01T02:22:39.125Z,6.18
2022-08-01T02:27:53.403Z,6.35
2022-08-01T02:33:03.553Z,5.85
2022-08-01T02:38:10.353Z,6.22
2022-08-01T02:43:17.282Z,7.63
2022-08-01T02:48:24.172Z,6.10
2022-08-01T02:53:44.460Z,5.60
2022-08-01T02:58:50.057Z,6.40
2022-08-01T03:03:55.004Z,6.35
2022-08-01T03:09:00.129Z,6.50
2022-08-01T03:14:06.305Z,5.70
2022-08-01T03:19:13.478Z,5.18
2022-08-01T03:24:17.833Z,5.70
2022-08-01T03:29:26.248Z,5.55
2022-08-01T03:34:31.190Z,5.57
2022-08-01T03:39:42.516Z,5.43
2022-08-01T03:44:52.863Z,4.53
2022-08-01T03:49:59.209Z,5.40
2022-08-01T03:55:08.365Z,5.22
2022-08-01T04:00:12.187Z,5.35
2022-08-01T04:05:17.508Z,4.70
2022-08-01T04:10:20.749Z,5.53
2022-08-01T04:15:25.147Z,5.50
2022-08-01T04:20:29.855Z,5.68
2022-08-01T04:25:36.442Z,5.53
2022-08-01T04:30:41.040Z,5.50
2022-08-01T04:36:03.212Z,5.65
2022-08-01T04:41:09.880Z,6.43
2022-08-01T04:46:14.516Z,6.60
2022-08-01T04:51:23.150Z,7.05
2022-08-01T04:56:26.197Z,7.68
2022-08-01T05:01:29.315Z,6.60
2022-08-01T05:06:33.700Z,7.15
2022-08-01T05:11:37.098Z,7.28
2022-08-01T05:16:40.408Z,8.07
2022-08-01T05:21:44.983Z,7.78
2022-08-01T05:26:48.070Z,7.70
2022-08-01T05:31:51.325Z,7.78
2022-08-01T05:36:58.003Z,8.10
2022-08-01T05:42:01.409Z,6.82
2022-08-01T05:47:04.698Z,7.10
2022-08-01T05:52:09.438Z,8.15
2022-08-01T05:57:13.088Z,7.53
2022-08-01T06:02:18.474Z,8.30
2022-08-01T06:07:23.183Z,8.13
2022-08-01T06:12:26.614Z,6.53
2022-08-01T06:17:29.519Z,6.40
2022-08-01T06:22:35.129Z,4.65
2022-08-01T06:27:38.716Z,4.03
2022-08-01T06:32:42.148Z,3.13
2022-08-01T06:37:47.918Z,3.60
2022-08-01T06:42:51.564Z,3.00
2022-08-01T06:47:54.544Z,2.85
2022-08-01T06:52:59.116Z,2.92
2022-08-01T06:58:02.648Z,2.70
2022-08-01T07:03:06.109Z,2.65
2022-08-01T07:08:10.793Z,2.83
2022-08-01T07:13:13.767Z,2.63
2022-08-01T07:18:16.972Z,2.13
2022-08-01T07:23:22.573Z,2.20
2022-08-01T07:28:25.955Z,2.55
2022-08-01T07:33:28.938Z,2.45
2022-08-01T07:38:53.358Z,2.55
2022-08-01T07:43:58.809Z,2.10
2022-08-01T07:49:04.661Z,2.15
2022-08-01T07:54:09.437Z,2.50
2022-08-01T07:59:12.441Z,2.20
2022-08-01T08:04:26.338Z,2.50
2022-08-01T08:09:30.963Z,2.20
2022-08-01T08:14:40.770Z,2.67
2022-08-01T08:19:44.012Z,2.75
2022-08-01T08:24:48.513Z,2.28
2022-08-01T08:29:51.555Z,2.30
2022-08-01T08:34:54.588Z,1.98
2022-08-01T08:39:59.256Z,1.85
2022-08-01T08:45:02.938Z,2.10
2022-08-01T08:50:07.653Z,1.60
2022-08-01T08:55:15.852Z,1.83
2022-08-01T09:00:18.950Z,1.80
2022-08-01T09:05:38.620Z,2.10
2022-08-01T09:10:44.276Z,1.50
2022-08-01T09:15:49.571Z,1.63
2022-08-01T09:20:52.651Z,1.65
2022-08-01T09:25:59.355Z,1.90
2022-08-01T09:31:08.712Z,2.00
2022-08-01T09:36:13.272Z,1.67
2022-08-01T09:41:37.987Z,1.77
2022-08-01T09:46:51.775Z,1.30
2022-08-01T09:51:59.202Z,1.20
2022-08-01T09:57:18.975Z,1.30
2022-08-01T10:02:30.873Z,1.58
2022-08-01T10:07:43.175Z,1.50
2022-08-01T10:12:49.774Z,1.40
2022-08-01T10:17:57.419Z,1.50
2022-08-01T10:23:02.914Z,1.15
2022-08-01T10:28:18.000Z,1.45
2022-08-01T10:33:51.143Z,1.42
2022-08-01T10:38:48.767Z,1.20
2022-08-01T10:43:53.563Z,1.40
2022-08-01T10:49:02.837Z,1.30
2022-08-01T10:54:07.601Z,1.40
2022-08-01T10:59:29.254Z,1.35
2022-08-01T11:04:55.377Z,1.33
2022-08-01T11:10:05.522Z,1.70
2022-08-01T11:15:29.096Z,1.63
2022-08-01T11:20:39.569Z,1.70
2022-08-01T11:26:10.470Z,1.40
2022-08-01T11:31:37.824Z,1.70
2022-08-01T11:36:58.026Z,1.83
2022-08-01T11:42:20.809Z,2.00
2022-08-01T11:47:57.221Z,1.95
2022-08-01T11:53:02.078Z,2.42
2022-08-01T11:58:21.994Z,1.98
2022-08-01T12:03:33.115Z,2.00
2022-08-01T12:13:43.032Z,2.50
2022-08-01T12:18:48.140Z,2.63
2022-08-01T12:24:02.082Z,2.65
2022-08-01T12:29:05.456Z,2.40
2022-08-01T12:34:31.721Z,2.58
2022-08-01T12:39:35.379Z,3.22
2022-08-01T12:44:39.391Z,3.42
2022-08-01T12:49:45.664Z,3.58
2022-08-01T12:55:12.396Z,3.63
2022-08-01T13:00:19.063Z,3.80
2022-08-01T13:05:26.327Z,3.70
2022-08-01T13:10:31.371Z,3.75
2022-08-01T13:15:41.701Z,3.85
2022-08-01T13:20:50.546Z,3.40
2022-08-01T13:25:57.326Z,3.20
2022-08-01T13:31:01.694Z,2.92
2022-08-01T13:36:07.800Z,2.97
2022-08-01T13:41:10.910Z,3.05
2022-08-01T13:46:14.162Z,2.40
2022-08-01T13:51:23.515Z,2.60
2022-08-01T13:56:28.741Z,2.22
2022-08-01T14:01:34.444Z,2.08
2022-08-01T14:06:39.260Z,1.70
2022-08-01T14:11:45.985Z,1.65
2022-08-01T14:16:49.174Z,2.00
2022-08-01T14:21:53.913Z,1.90
2022-08-01T14:26:56.837Z,1.55
2022-08-01T14:31:59.958Z,1.55
2022-08-01T14:37:04.660Z,1.80
2022-08-01T14:42:08.273Z,1.85
2022-08-01T14:47:16.201Z,1.95
2022-08-01T14:52:27.127Z,1.58
2022-08-01T14:57:30.459Z,1.60
2022-08-01T15:02:33.581Z,1.40
2022-08-01T15:07:52.307Z,1.40
2022-08-01T15:12:57.010Z,1.50
2022-08-01T15:18:00.243Z,1.73
2022-08-01T15:23:05.322Z,1.60
2022-08-01T15:28:09.702Z,1.70
2022-08-01T15:33:13.046Z,1.73
2022-08-01T15:38:18.457Z,1.77
2022-08-01T15:43:21.989Z,2.03
2022-08-01T15:48:25.438Z,1.65
2022-08-01T15:53:29.867Z,1.75
2022-08-01T15:58:34.616Z,1.75
2022-08-01T16:03:37.505Z,2.13
2022-08-01T16:08:42.187Z,1.88
2022-08-01T16:13:45.485Z,1.50
2022-08-01T16:18:53.753Z,1.90
2022-08-01T16:23:59.355Z,1.80
2022-08-01T16:29:02.391Z,1.75
2022-08-01T16:34:05.323Z,1.95
2022-08-01T16:39:10.596Z,1.85
2022-08-01T16:44:14.060Z,2.28
2022-08-01T16:49:17.594Z,9.98
2022-08-01T16:54:25.559Z,5.13
2022-08-01T16:59:29.229Z,7.63
2022-08-01T17:04:32.746Z,5.63
2022-08-01T17:09:42.953Z,11.88
2022-08-01T17:14:46.583Z,3.90
2022-08-01T17:19:50.115Z,3.15
2022-08-01T17:24:54.676Z,5.47
2022-08-01T17:29:57.774Z,6.75
2022-08-01T17:35:00.624Z,13.13
2022-08-01T17:40:37.615Z,11.50
2022-08-01T17:45:29.949Z,6.65
2022-08-01T17:50:41.593Z,6.80
2022-08-01T17:55:55.698Z,5.40
2022-08-01T18:01:01.258Z,4.75
2022-08-01T18:06:04.596Z,4.60
2022-08-01T18:11:09.733Z,4.25
2022-08-01T18:16:13.553Z,4.43
2022-08-01T18:21:16.898Z,4.00
2022-08-01T18:26:22.038Z,3.83
2022-08-01T18:31:25.473Z,4.63
2022-08-01T18:36:32.746Z,4.10
2022-08-01T18:41:39.456Z,4.35
2022-08-01T18:46:42.511Z,4.38
2022-08-01T18:51:47.305Z,4.88
2022-08-01T18:56:52.385Z,4.05
2022-08-01T19:01:55.494Z,4.60
2022-08-01T19:06:59.014Z,4.35
2022-08-01T19:12:04.816Z,4.53
2022-08-01T19:17:07.981Z,4.40
2022-08-01T19:22:12.121Z,4.85
2022-08-01T19:27:20.338Z,4.53
2022-08-01T19:32:25.259Z,4.20
2022-08-01T19:37:30.049Z,5.00
2022-08-01T19:42:34.943Z,5.43
2022-08-01T19:47:51.638Z,5.22
2022-08-01T19:53:04.000Z,5.13
2022-08-01T20:03:34.840Z,7.45
2022-08-01T20:08:38.379Z,6.97
2022-08-01T20:13:43.967Z,7.30
2022-08-01T20:18:47.408Z,7.18
2022-08-01T20:23:51.752Z,7.60
2022-08-01T20:28:57.689Z,7.72
2022-08-01T20:34:01.581Z,7.85
2022-08-01T20:39:05.270Z,8.50
2022-08-01T20:44:13.922Z,7.90
2022-08-01T20:49:17.941Z,7.97
2022-08-01T20:54:21.129Z,9.10
2022-08-01T20:59:54.745Z,17.52
2022-08-01T21:04:58.480Z,18.92
2022-08-01T21:10:07.332Z,21.00
2022-08-01T21:15:16.069Z,21.38
2022-08-01T21:20:20.224Z,19.92
2022-08-01T21:25:30.859Z,18.88
2022-08-01T21:30:36.484Z,19.53
2022-08-01T21:35:41.311Z,17.60
2022-08-01T21:40:45.694Z,17.45
2022-08-01T21:45:57.886Z,15.20
2022-08-01T21:51:06.363Z,15.88
2022-08-01T21:56:24.480Z,16.35
2022-08-01T22:01:52.449Z,15.45
2022-08-01T22:06:56.976Z,13.93
2022-08-01T22:12:06.285Z,14.68
2022-08-01T22:17:14.138Z,15.00
2022-08-01T22:22:45.323Z,14.95
2022-08-01T22:28:05.618Z,14.20
2022-08-01T22:33:16.940Z,13.40
2022-08-01T22:38:23.353Z,14.20
2022-08-01T22:43:30.990Z,14.10
2022-08-01T22:48:41.872Z,13.70
2022-08-01T22:53:55.261Z,14.50
2022-08-01T22:59:01.941Z,13.63
2022-08-01T23:04:09.509Z,13.52
2022-08-01T23:09:13.438Z,12.80
2022-08-01T23:14:17.610Z,13.57
2022-08-01T23:19:24.978Z,12.90
2022-08-01T23:24:29.176Z,12.63
2022-08-01T23:29:32.464Z,12.85
2022-08-01T23:34:37.016Z,11.70
2022-08-01T23:39:40.170Z,11.60
2022-08-01T23:44:43.669Z,10.65
2022-08-01T23:49:53.164Z,11.25
2022-08-01T23:54:57.323Z,11.18
